sensor_id;sensor_type;location;lat;lon;timestamp;P1;durP1;ratioP1;P2;durP2;ratioP2
36833;SDS011;48003;52.084;5.224;2023-03-14T00:01:27;19.5;;;5.4;;
36833;SDS011;48003;52.084;5.224;2023-03-14T00:03:03;27.6;;;5.3;;
36833;SDS011;48003;52.084;5.224;2023-03-14T00:04:39;23.3;;;5.7;;
36833;SDS011;48003;52.084;5.224;2023-03-14T00:07:52;23.5;;;6.0;;
36833;SDS011;48003;52.084;5.224;2023-03-14T00:09:29;26.8;;;5.7;;
36833;SDS011;48003;52.084;5.224;2023-03-14T00:11:06;24.0;;;4.91;;
36833;SDS011;48003;52.084;5.224;2023-03-14T00:14:20;23.8;;;5.2;;
36833;SDS011;48003;52.084;5.224;2023-03-14T00:16:00;22.7;;;5.4;;
36833;SDS011;48003;52.084;5.224;2023-03-14T00:17:38;21.4;;;5.4;;
36833;SDS011;48003;52.084;5.224;2023-03-14T00:19:14;27.0;;;5.6;;
36833;SDS011;48003;52.084;5.224;2023-03-14T00:22:28;28.6;;;5.7;;
36833;SDS011;48003;52.084;5.224;2023-03-14T00:24:06;23.2;;;5.2;;
36833;SDS011;48003;52.084;5.224;2023-03-14T00:25:43;21.8;;;5.4;;
36833;SDS011;48003;52.084;5.224;2023-03-14T00:28:55;23.8;;;4.61;;
36833;SDS011;48003;52.084;5.224;2023-03-14T00:30:31;20.2;;;4.91;;
36833;SDS011;48003;52.084;5.224;2023-03-14T00:32:07;16.2;;;3.9;;
36833;SDS011;48003;52.084;5.224;2023-03-14T00:35:20;17.2;;;3.7;;
36833;SDS011;48003;52.084;5.224;2023-03-14T00:36:57;16.11;;;3.5;;
36833;SDS011;48003;52.084;5.224;2023-03-14T00:38:33;16.2;;;3.1;;
36833;SDS011;48003;52.084;5.224;2023-03-14T00:40:09;13.6;;;3.0;;
36833;SDS011;48003;52.084;5.224;2023-03-14T00:43:22;14.0;;;2.6;;
36833;SDS011;48003;52.084;5.224;2023-03-14T00:44:59;12.2;;;2.7;;
36833;SDS011;48003;52.084;5.224;2023-03-14T00:46:35;11.4;;;2.4;;
36833;SDS011;48003;52.084;5.224;2023-03-14T00:49:47;16.7;;;2.8;;
36833;SDS011;48003;52.084;5.224;2023-03-14T00:51:24;13.7;;;2.7;;
36833;SDS011;48003;52.084;5.224;2023-03-14T00:53:00;16.3;;;2.6;;
36833;SDS011;48003;52.084;5.224;2023-03-14T00:56:12;15.9;;;2.9;;
36833;SDS011;48003;52.084;5.224;2023-03-14T00:57:49;12.3;;;2.6;;
36833;SDS011;48003;52.084;5.224;2023-03-14T00:59:25;12.2;;;2.8;;
36833;SDS011;48003;52.084;5.224;2023-03-14T01:01:05;14.2;;;3.0;;
36833;SDS011;48003;52.084;5.224;2023-03-14T01:04:19;12.3;;;2.6;;
36833;SDS011;48003;52.084;5.224;2023-03-14T01:06:05;16.61;;;3.1;;
36833;SDS011;48003;52.084;5.224;2023-03-14T01:07:42;15.3;;;3.1;;
36833;SDS011;48003;52.084;5.224;2023-03-14T01:10:54;13.3;;;2.9;;
36833;SDS011;48003;52.084;5.224;2023-03-14T01:12:30;13.6;;;2.9;;
36833;SDS011;48003;52.084;5.224;2023-03-14T01:14:06;17.8;;;3.1;;
36833;SDS011;48003;52.084;5.224;2023-03-14T01:15:43;13.1;;;2.8;;
36833;SDS011;48003;52.084;5.224;2023-03-14T01:18:55;14.0;;;2.6;;
36833;SDS011;48003;52.084;5.224;2023-03-14T01:20:31;11.4;;;2.4;;
36833;SDS011;48003;52.084;5.224;2023-03-14T01:22:08;11.4;;;2.7;;
36833;SDS011;48003;52.084;5.224;2023-03-14T01:25:21;10.4;;;2.7;;
36833;SDS011;48003;52.084;5.224;2023-03-14T01:26:57;10.1;;;2.31;;
36833;SDS011;48003;52.084;5.224;2023-03-14T01:28:34;11.6;;;2.5;;
36833;SDS011;48003;52.084;5.224;2023-03-14T01:31:49;12.1;;;2.8;;
36833;SDS011;48003;52.084;5.224;2023-03-14T01:33:25;12.0;;;2.6;;
36833;SDS011;48003;52.084;5.224;2023-03-14T01:35:01;11.0;;;2.9;;
36833;SDS011;48003;52.084;5.224;2023-03-14T01:36:38;13.0;;;2.9;;
36833;SDS011;48003;52.084;5.224;2023-03-14T01:39:50;13.1;;;2.5;;
36833;SDS011;48003;52.084;5.224;2023-03-14T01:41:26;13.2;;;3.3;;
36833;SDS011;48003;52.084;5.224;2023-03-14T01:43:05;12.2;;;2.6;;
36833;SDS011;48003;52.084;5.224;2023-03-14T01:46:32;10.4;;;2.6;;
36833;SDS011;48003;52.084;5.224;2023-03-14T01:48:12;11.0;;;2.5;;
36833;SDS011;48003;52.084;5.224;2023-03-14T01:49:49;13.5;;;2.31;;
36833;SDS011;48003;52.084;5.224;2023-03-14T01:51:30;13.6;;;2.6;;
36833;SDS011;48003;52.084;5.224;2023-03-14T01:54:49;13.5;;;2.7;;
36833;SDS011;48003;52.084;5.224;2023-03-14T01:56:29;12.7;;;2.1;;
36833;SDS011;48003;52.084;5.224;2023-03-14T01:58:07;11.4;;;2.21;;
36833;SDS011;48003;52.084;5.224;2023-03-14T01:59:46;14.3;;;2.6;;
36833;SDS011;48003;52.084;5.224;2023-03-14T02:03:05;10.0;;;2.31;;
36833;SDS011;48003;52.084;5.224;2023-03-14T02:04:49;11.8;;;2.21;;
36833;SDS011;48003;52.084;5.224;2023-03-14T02:06:29;9.31;;;2.31;;
36833;SDS011;48003;52.084;5.224;2023-03-14T02:08:13;11.0;;;2.31;;
36833;SDS011;48003;52.084;5.224;2023-03-14T02:11:32;11.0;;;2.31;;
36833;SDS011;48003;52.084;5.224;2023-03-14T02:13:09;12.2;;;2.1;;
36833;SDS011;48003;52.084;5.224;2023-03-14T02:14:47;13.0;;;2.4;;
36833;SDS011;48003;52.084;5.224;2023-03-14T02:16:23;11.6;;;2.31;;
36833;SDS011;48003;52.084;5.224;2023-03-14T02:19:44;12.9;;;2.6;;
36833;SDS011;48003;52.084;5.224;2023-03-14T02:21:36;9.4;;;1.9;;
36833;SDS011;48003;52.084;5.224;2023-03-14T02:23:24;11.5;;;2.31;;
36833;SDS011;48003;52.084;5.224;2023-03-14T02:25:11;8.81;;;2.1;;
36833;SDS011;48003;52.084;5.224;2023-03-14T02:27:24;10.3;;;1.9;;
36833;SDS011;48003;52.084;5.224;2023-03-14T02:29:01;10.8;;;1.9;;
36833;SDS011;48003;52.084;5.224;2023-03-14T02:32:14;8.6;;;1.6;;
36833;SDS011;48003;52.084;5.224;2023-03-14T02:33:53;11.6;;;2.4;;
36833;SDS011;48003;52.084;5.224;2023-03-14T02:35:33;9.1;;;2.1;;
36833;SDS011;48003;52.084;5.224;2023-03-14T02:37:16;8.71;;;1.9;;
36833;SDS011;48003;52.084;5.224;2023-03-14T02:40:42;11.5;;;2.0;;
36833;SDS011;48003;52.084;5.224;2023-03-14T02:42:19;10.4;;;2.0;;
36833;SDS011;48003;52.084;5.224;2023-03-14T02:43:57;10.3;;;1.9;;
36833;SDS011;48003;52.084;5.224;2023-03-14T02:47:18;12.8;;;2.5;;
36833;SDS011;48003;52.084;5.224;2023-03-14T02:48:59;14.5;;;2.4;;
36833;SDS011;48003;52.084;5.224;2023-03-14T02:50:40;9.31;;;1.9;;
36833;SDS011;48003;52.084;5.224;2023-03-14T02:52:17;9.5;;;2.21;;
36833;SDS011;48003;52.084;5.224;2023-03-14T02:55:29;11.0;;;2.1;;
36833;SDS011;48003;52.084;5.224;2023-03-14T02:57:05;9.0;;;2.1;;
36833;SDS011;48003;52.084;5.224;2023-03-14T02:58:41;10.6;;;2.21;;
36833;SDS011;48003;52.084;5.224;2023-03-14T03:00:18;12.8;;;2.6;;
36833;SDS011;48003;52.084;5.224;2023-03-14T03:03:31;13.9;;;3.0;;
36833;SDS011;48003;52.084;5.224;2023-03-14T03:05:07;11.4;;;2.31;;
36833;SDS011;48003;52.084;5.224;2023-03-14T03:06:43;11.4;;;2.7;;
36833;SDS011;48003;52.084;5.224;2023-03-14T03:09:57;11.2;;;2.31;;
36833;SDS011;48003;52.084;5.224;2023-03-14T03:11:33;10.6;;;2.4;;
36833;SDS011;48003;52.084;5.224;2023-03-14T03:13:09;9.21;;;2.31;;
36833;SDS011;48003;52.084;5.224;2023-03-14T03:16:22;9.4;;;2.31;;
36833;SDS011;48003;52.084;5.224;2023-03-14T03:17:58;13.2;;;2.4;;
36833;SDS011;48003;52.084;5.224;2023-03-14T03:19:34;11.5;;;2.4;;
36833;SDS011;48003;52.084;5.224;2023-03-14T03:21:11;9.6;;;2.5;;
36833;SDS011;48003;52.084;5.224;2023-03-14T03:24:23;14.0;;;2.8;;
36833;SDS011;48003;52.084;5.224;2023-03-14T03:26:00;14.7;;;2.8;;
36833;SDS011;48003;52.084;5.224;2023-03-14T03:27:37;10.8;;;2.4;;
36833;SDS011;48003;52.084;5.224;2023-03-14T03:30:50;11.9;;;2.6;;
36833;SDS011;48003;52.084;5.224;2023-03-14T03:32:26;10.5;;;2.6;;
36833;SDS011;48003;52.084;5.224;2023-03-14T03:34:03;11.4;;;2.6;;
36833;SDS011;48003;52.084;5.224;2023-03-14T03:37:20;15.1;;;3.1;;
36833;SDS011;48003;52.084;5.224;2023-03-14T03:38:56;15.1;;;2.7;;
36833;SDS011;48003;52.084;5.224;2023-03-14T03:40:32;12.6;;;2.7;;
36833;SDS011;48003;52.084;5.224;2023-03-14T03:42:09;14.8;;;3.0;;
36833;SDS011;48003;52.084;5.224;2023-03-14T03:45:21;15.7;;;3.1;;
36833;SDS011;48003;52.084;5.224;2023-03-14T03:46:57;15.9;;;3.0;;
36833;SDS011;48003;52.084;5.224;2023-03-14T03:48:33;11.6;;;2.8;;
36833;SDS011;48003;52.084;5.224;2023-03-14T03:51:46;12.9;;;2.7;;
36833;SDS011;48003;52.084;5.224;2023-03-14T03:53:22;13.7;;;3.2;;
36833;SDS011;48003;52.084;5.224;2023-03-14T03:54:58;12.5;;;2.6;;
36833;SDS011;48003;52.084;5.224;2023-03-14T03:58:11;11.1;;;2.5;;
36833;SDS011;48003;52.084;5.224;2023-03-14T03:59:47;12.7;;;2.7;;
36833;SDS011;48003;52.084;5.224;2023-03-14T04:01:23;12.9;;;2.7;;
36833;SDS011;48003;52.084;5.224;2023-03-14T04:04:35;14.2;;;2.6;;
36833;SDS011;48003;52.084;5.224;2023-03-14T04:06:12;16.2;;;2.8;;
36833;SDS011;48003;52.084;5.224;2023-03-14T04:07:48;11.6;;;2.4;;
36833;SDS011;48003;52.084;5.224;2023-03-14T04:09:25;14.3;;;3.2;;
36833;SDS011;48003;52.084;5.224;2023-03-14T04:12:39;11.3;;;2.4;;
36833;SDS011;48003;52.084;5.224;2023-03-14T04:14:15;10.9;;;2.7;;
36833;SDS011;48003;52.084;5.224;2023-03-14T04:15:51;12.1;;;2.5;;
36833;SDS011;48003;52.084;5.224;2023-03-14T04:19:04;13.7;;;2.6;;
36833;SDS011;48003;52.084;5.224;2023-03-14T04:20:40;12.2;;;2.6;;
36833;SDS011;48003;52.084;5.224;2023-03-14T04:22:17;10.4;;;2.7;;
36833;SDS011;48003;52.084;5.224;2023-03-14T04:25:30;13.3;;;2.8;;
36833;SDS011;48003;52.084;5.224;2023-03-14T04:27:06;11.7;;;2.8;;
36833;SDS011;48003;52.084;5.224;2023-03-14T04:28:42;10.9;;;2.6;;
36833;SDS011;48003;52.084;5.224;2023-03-14T04:30:19;12.3;;;2.5;;
36833;SDS011;48003;52.084;5.224;2023-03-14T04:33:31;11.2;;;2.31;;
36833;SDS011;48003;52.084;5.224;2023-03-14T04:35:08;12.1;;;2.6;;
36833;SDS011;48003;52.084;5.224;2023-03-14T04:36:44;14.3;;;3.4;;
36833;SDS011;48003;52.084;5.224;2023-03-14T04:39:56;16.2;;;3.2;;
36833;SDS011;48003;52.084;5.224;2023-03-14T04:41:32;12.5;;;2.7;;
36833;SDS011;48003;52.084;5.224;2023-03-14T04:43:09;12.6;;;2.9;;
36833;SDS011;48003;52.084;5.224;2023-03-14T04:46:22;10.0;;;2.21;;
36833;SDS011;48003;52.084;5.224;2023-03-14T04:47:59;11.0;;;2.7;;
36833;SDS011;48003;52.084;5.224;2023-03-14T04:49:35;14.4;;;3.0;;
36833;SDS011;48003;52.084;5.224;2023-03-14T04:51:11;10.0;;;2.5;;
36833;SDS011;48003;52.084;5.224;2023-03-14T04:54:23;9.6;;;2.5;;
36833;SDS011;48003;52.084;5.224;2023-03-14T04:55:59;8.4;;;2.1;;
36833;SDS011;48003;52.084;5.224;2023-03-14T04:57:36;9.21;;;2.4;;
36833;SDS011;48003;52.084;5.224;2023-03-14T05:00:49;11.2;;;2.4;;
36833;SDS011;48003;52.084;5.224;2023-03-14T05:02:26;9.81;;;2.6;;
36833;SDS011;48003;52.084;5.224;2023-03-14T05:04:02;10.4;;;2.5;;
36833;SDS011;48003;52.084;5.224;2023-03-14T05:07:14;10.5;;;2.5;;
36833;SDS011;48003;52.084;5.224;2023-03-14T05:08:50;13.1;;;2.9;;
36833;SDS011;48003;52.084;5.224;2023-03-14T05:10:26;9.81;;;2.4;;
36833;SDS011;48003;52.084;5.224;2023-03-14T05:13:39;10.5;;;2.4;;
36833;SDS011;48003;52.084;5.224;2023-03-14T05:15:15;9.31;;;2.6;;
36833;SDS011;48003;52.084;5.224;2023-03-14T05:16:51;10.5;;;2.7;;
36833;SDS011;48003;52.084;5.224;2023-03-14T05:18:27;8.2;;;2.4;;
36833;SDS011;48003;52.084;5.224;2023-03-14T05:21:40;10.6;;;2.5;;
36833;SDS011;48003;52.084;5.224;2023-03-14T05:23:16;10.0;;;2.8;;
36833;SDS011;48003;52.084;5.224;2023-03-14T05:24:52;11.3;;;2.4;;
36833;SDS011;48003;52.084;5.224;2023-03-14T05:28:06;8.81;;;2.8;;
36833;SDS011;48003;52.084;5.224;2023-03-14T05:29:42;8.9;;;2.7;;
36833;SDS011;48003;52.084;5.224;2023-03-14T05:31:18;8.4;;;2.31;;
36833;SDS011;48003;52.084;5.224;2023-03-14T05:34:30;6.5;;;2.31;;
36833;SDS011;48003;52.084;5.224;2023-03-14T05:36:07;8.1;;;2.5;;
36833;SDS011;48003;52.084;5.224;2023-03-14T05:37:44;11.3;;;2.8;;
36833;SDS011;48003;52.084;5.224;2023-03-14T05:39:20;10.3;;;2.8;;
36833;SDS011;48003;52.084;5.224;2023-03-14T05:42:33;8.9;;;2.9;;
36833;SDS011;48003;52.084;5.224;2023-03-14T05:44:09;11.3;;;3.1;;
36833;SDS011;48003;52.084;5.224;2023-03-14T05:45:45;11.0;;;3.1;;
36833;SDS011;48003;52.084;5.224;2023-03-14T05:48:57;10.9;;;3.7;;
36833;SDS011;48003;52.084;5.224;2023-03-14T05:50:34;9.31;;;3.6;;
36833;SDS011;48003;52.084;5.224;2023-03-14T05:52:12;9.1;;;3.9;;
36833;SDS011;48003;52.084;5.224;2023-03-14T05:55:24;10.21;;;4.61;;
36833;SDS011;48003;52.084;5.224;2023-03-14T05:57:01;10.6;;;4.61;;
36833;SDS011;48003;52.084;5.224;2023-03-14T05:58:37;9.81;;;5.11;;
36833;SDS011;48003;52.084;5.224;2023-03-14T06:00:13;11.0;;;5.4;;
36833;SDS011;48003;52.084;5.224;2023-03-14T06:03:26;10.0;;;5.4;;
36833;SDS011;48003;52.084;5.224;2023-03-14T06:05:03;11.3;;;6.1;;
36833;SDS011;48003;52.084;5.224;2023-03-14T06:06:41;14.2;;;6.4;;
36833;SDS011;48003;52.084;5.224;2023-03-14T06:09:53;10.1;;;5.8;;
36833;SDS011;48003;52.084;5.224;2023-03-14T06:11:29;10.9;;;5.8;;
36833;SDS011;48003;52.084;5.224;2023-03-14T06:13:05;11.3;;;6.0;;
36833;SDS011;48003;52.084;5.224;2023-03-14T06:16:17;12.4;;;6.4;;
36833;SDS011;48003;52.084;5.224;2023-03-14T06:17:54;11.3;;;6.5;;
36833;SDS011;48003;52.084;5.224;2023-03-14T06:19:31;12.5;;;7.0;;
36833;SDS011;48003;52.084;5.224;2023-03-14T06:21:07;12.6;;;7.1;;
36833;SDS011;48003;52.084;5.224;2023-03-14T06:24:20;17.3;;;7.1;;
36833;SDS011;48003;52.084;5.224;2023-03-14T06:25:56;14.7;;;8.0;;
36833;SDS011;48003;52.084;5.224;2023-03-14T06:30:45;15.0;;;8.2;;
36833;SDS011;48003;52.084;5.224;2023-03-14T06:32:21;13.5;;;5.11;;
36833;SDS011;48003;52.084;5.224;2023-03-14T06:33:58;8.5;;;3.1;;
36833;SDS011;48003;52.084;5.224;2023-03-14T06:37:11;7.2;;;2.0;;
36833;SDS011;48003;52.084;5.224;2023-03-14T06:38:47;4.0;;;1.0;;
36833;SDS011;48003;52.084;5.224;2023-03-14T06:40:23;5.11;;;0.8;;
36833;SDS011;48003;52.084;5.224;2023-03-14T06:43:35;4.61;;;0.7;;
36833;SDS011;48003;52.084;5.224;2023-03-14T06:45:12;3.2;;;0.8;;
36833;SDS011;48003;52.084;5.224;2023-03-14T06:46:49;3.4;;;0.7;;
36833;SDS011;48003;52.084;5.224;2023-03-14T06:48:25;3.4;;;0.5;;
36833;SDS011;48003;52.084;5.224;2023-03-14T06:51:39;3.3;;;0.6;;
36833;SDS011;48003;52.084;5.224;2023-03-14T06:53:16;5.11;;;0.5;;
36833;SDS011;48003;52.084;5.224;2023-03-14T06:54:52;3.0;;;0.7;;
36833;SDS011;48003;52.084;5.224;2023-03-14T06:58:04;4.91;;;1.0;;
36833;SDS011;48003;52.084;5.224;2023-03-14T06:59:41;4.8;;;0.8;;
36833;SDS011;48003;52.084;5.224;2023-03-14T07:01:20;3.2;;;0.6;;
36833;SDS011;48003;52.084;5.224;2023-03-14T07:02:58;3.7;;;0.9;;
36833;SDS011;48003;52.084;5.224;2023-03-14T07:06:10;4.7;;;0.9;;
36833;SDS011;48003;52.084;5.224;2023-03-14T07:07:46;3.1;;;1.0;;
36833;SDS011;48003;52.084;5.224;2023-03-14T07:09:23;4.3;;;1.0;;
36833;SDS011;48003;52.084;5.224;2023-03-14T07:12:35;3.7;;;1.11;;
36833;SDS011;48003;52.084;5.224;2023-03-14T07:14:11;4.61;;;1.3;;
36833;SDS011;48003;52.084;5.224;2023-03-14T07:15:47;4.1;;;1.11;;
36833;SDS011;48003;52.084;5.224;2023-03-14T07:18:59;4.3;;;0.9;;
36833;SDS011;48003;52.084;5.224;2023-03-14T07:20:36;4.0;;;1.11;;
36833;SDS011;48003;52.084;5.224;2023-03-14T07:22:13;3.1;;;1.0;;
36833;SDS011;48003;52.084;5.224;2023-03-14T07:25:25;4.61;;;1.11;;
36833;SDS011;48003;52.084;5.224;2023-03-14T07:27:02;6.0;;;1.2;;
36833;SDS011;48003;52.084;5.224;2023-03-14T07:28:38;5.2;;;1.11;;
36833;SDS011;48003;52.084;5.224;2023-03-14T07:30:14;3.8;;;1.2;;
36833;SDS011;48003;52.084;5.224;2023-03-14T07:33:26;5.8;;;1.3;;
36833;SDS011;48003;52.084;5.224;2023-03-14T07:35:03;3.2;;;1.11;;
36833;SDS011;48003;52.084;5.224;2023-03-14T07:36:40;4.61;;;0.9;;
36833;SDS011;48003;52.084;5.224;2023-03-14T07:39:52;4.5;;;1.2;;
36833;SDS011;48003;52.084;5.224;2023-03-14T07:41:28;5.3;;;1.11;;
36833;SDS011;48003;52.084;5.224;2023-03-14T07:43:04;5.8;;;1.2;;
36833;SDS011;48003;52.084;5.224;2023-03-14T07:46:17;6.2;;;1.2;;
36833;SDS011;48003;52.084;5.224;2023-03-14T07:47:52;6.9;;;1.0;;
36833;SDS011;48003;52.084;5.224;2023-03-14T07:49:28;4.7;;;0.9;;
36833;SDS011;48003;52.084;5.224;2023-03-14T07:51:05;6.0;;;0.9;;
36833;SDS011;48003;52.084;5.224;2023-03-14T07:54:17;4.3;;;1.0;;
36833;SDS011;48003;52.084;5.224;2023-03-14T07:55:53;5.9;;;1.0;;
36833;SDS011;48003;52.084;5.224;2023-03-14T07:57:29;6.0;;;1.11;;
36833;SDS011;48003;52.084;5.224;2023-03-14T08:00:41;5.2;;;0.9;;
36833;SDS011;48003;52.084;5.224;2023-03-14T08:02:19;3.5;;;0.9;;
36833;SDS011;48003;52.084;5.224;2023-03-14T08:03:55;5.4;;;0.7;;
36833;SDS011;48003;52.084;5.224;2023-03-14T08:07:10;5.4;;;0.7;;
36833;SDS011;48003;52.084;5.224;2023-03-14T08:08:46;5.9;;;1.2;;
36833;SDS011;48003;52.084;5.224;2023-03-14T08:10:22;2.9;;;0.7;;
36833;SDS011;48003;52.084;5.224;2023-03-14T08:13:35;6.1;;;1.2;;
36833;SDS011;48003;52.084;5.224;2023-03-14T08:15:13;6.1;;;1.2;;
36833;SDS011;48003;52.084;5.224;2023-03-14T08:16:49;3.7;;;0.6;;
36833;SDS011;48003;52.084;5.224;2023-03-14T08:18:26;3.5;;;0.9;;
36833;SDS011;48003;52.084;5.224;2023-03-14T08:21:39;4.3;;;0.7;;
36833;SDS011;48003;52.084;5.224;2023-03-14T08:23:15;7.1;;;0.8;;
36833;SDS011;48003;52.084;5.224;2023-03-14T08:24:51;5.6;;;0.8;;
36833;SDS011;48003;52.084;5.224;2023-03-14T08:28:03;5.0;;;1.0;;
36833;SDS011;48003;52.084;5.224;2023-03-14T08:29:40;6.5;;;0.8;;
36833;SDS011;48003;52.084;5.224;2023-03-14T08:31:17;3.9;;;0.5;;
36833;SDS011;48003;52.084;5.224;2023-03-14T08:34:32;4.5;;;0.7;;
36833;SDS011;48003;52.084;5.224;2023-03-14T08:36:09;3.3;;;0.6;;
36833;SDS011;48003;52.084;5.224;2023-03-14T08:37:46;4.2;;;0.4;;
36833;SDS011;48003;52.084;5.224;2023-03-14T08:39:22;3.8;;;0.6;;
36833;SDS011;48003;52.084;5.224;2023-03-14T08:42:37;5.4;;;0.7;;
36833;SDS011;48003;52.084;5.224;2023-03-14T08:44:14;4.5;;;0.8;;
36833;SDS011;48003;52.084;5.224;2023-03-14T08:45:50;5.6;;;0.7;;
36833;SDS011;48003;52.084;5.224;2023-03-14T08:49:03;4.2;;;0.6;;
36833;SDS011;48003;52.084;5.224;2023-03-14T08:50:39;2.6;;;0.3;;
36833;SDS011;48003;52.084;5.224;2023-03-14T08:52:16;6.3;;;0.7;;
36833;SDS011;48003;52.084;5.224;2023-03-14T08:53:52;5.5;;;0.7;;
36833;SDS011;48003;52.084;5.224;2023-03-14T08:57:05;6.4;;;0.8;;
36833;SDS011;48003;52.084;5.224;2023-03-14T08:58:41;6.1;;;0.7;;
36833;SDS011;48003;52.084;5.224;2023-03-14T09:03:31;6.6;;;0.8;;
36833;SDS011;48003;52.084;5.224;2023-03-14T09:05:08;8.4;;;0.9;;
36833;SDS011;48003;52.084;5.224;2023-03-14T09:06:44;6.1;;;1.0;;
36833;SDS011;48003;52.084;5.224;2023-03-14T09:09:57;7.0;;;1.2;;
36833;SDS011;48003;52.084;5.224;2023-03-14T09:11:33;5.7;;;1.0;;
36833;SDS011;48003;52.084;5.224;2023-03-14T09:13:09;9.9;;;2.0;;
36833;SDS011;48003;52.084;5.224;2023-03-14T09:14:45;8.9;;;1.5;;
36833;SDS011;48003;52.084;5.224;2023-03-14T09:17:57;16.11;;;2.1;;
36833;SDS011;48003;52.084;5.224;2023-03-14T09:19:33;10.0;;;1.6;;
36833;SDS011;48003;52.084;5.224;2023-03-14T09:21:09;12.2;;;2.21;;
36833;SDS011;48003;52.084;5.224;2023-03-14T09:24:22;10.0;;;1.8;;
36833;SDS011;48003;52.084;5.224;2023-03-14T09:25:58;13.2;;;2.8;;
36833;SDS011;48003;52.084;5.224;2023-03-14T09:27:35;13.0;;;2.31;;
36833;SDS011;48003;52.084;5.224;2023-03-14T09:30:47;15.7;;;2.1;;
36833;SDS011;48003;52.084;5.224;2023-03-14T09:32:23;11.8;;;2.4;;
36833;SDS011;48003;52.084;5.224;2023-03-14T09:33:59;14.2;;;2.21;;
36833;SDS011;48003;52.084;5.224;2023-03-14T09:37:12;20.7;;;2.6;;
36833;SDS011;48003;52.084;5.224;2023-03-14T09:38:48;16.0;;;2.8;;
36833;SDS011;48003;52.084;5.224;2023-03-14T09:40:24;18.5;;;2.7;;
36833;SDS011;48003;52.084;5.224;2023-03-14T09:42:10;16.9;;;2.21;;
36833;SDS011;48003;52.084;5.224;2023-03-14T09:45:39;20.6;;;2.8;;
36833;SDS011;48003;52.084;5.224;2023-03-14T09:47:17;15.5;;;3.1;;
36833;SDS011;48003;52.084;5.224;2023-03-14T09:48:55;12.9;;;2.31;;
36833;SDS011;48003;52.084;5.224;2023-03-14T09:50:32;18.2;;;3.0;;
36833;SDS011;48003;52.084;5.224;2023-03-14T09:53:55;15.0;;;2.4;;
36833;SDS011;48003;52.084;5.224;2023-03-14T09:55:31;17.91;;;2.8;;
36833;SDS011;48003;52.084;5.224;2023-03-14T09:57:11;17.7;;;3.0;;
36833;SDS011;48003;52.084;5.224;2023-03-14T09:58:50;16.4;;;2.6;;
36833;SDS011;48003;52.084;5.224;2023-03-14T10:02:12;19.91;;;2.6;;
36833;SDS011;48003;52.084;5.224;2023-03-14T10:03:54;15.7;;;2.4;;
36833;SDS011;48003;52.084;5.224;2023-03-14T10:05:32;18.61;;;2.8;;
36833;SDS011;48003;52.084;5.224;2023-03-14T10:07:08;17.7;;;2.9;;
36833;SDS011;48003;52.084;5.224;2023-03-14T10:10:26;19.7;;;2.6;;
36833;SDS011;48003;52.084;5.224;2023-03-14T10:12:03;16.4;;;3.2;;
36833;SDS011;48003;52.084;5.224;2023-03-14T10:13:46;18.8;;;3.2;;
36833;SDS011;48003;52.084;5.224;2023-03-14T10:15:26;19.5;;;3.3;;
36833;SDS011;48003;52.084;5.224;2023-03-14T10:18:46;19.91;;;2.9;;
36833;SDS011;48003;52.084;5.224;2023-03-14T10:22:05;19.3;;;2.9;;
36833;SDS011;48003;52.084;5.224;2023-03-14T10:23:50;16.61;;;3.1;;
36833;SDS011;48003;52.084;5.224;2023-03-14T10:27:08;20.6;;;3.1;;
36833;SDS011;48003;52.084;5.224;2023-03-14T10:29:01;15.7;;;2.5;;
36833;SDS011;48003;52.084;5.224;2023-03-14T10:30:40;19.0;;;3.0;;
36833;SDS011;48003;52.084;5.224;2023-03-14T10:32:20;19.2;;;2.9;;
36833;SDS011;48003;52.084;5.224;2023-03-14T10:35:41;19.8;;;2.9;;
36833;SDS011;48003;52.084;5.224;2023-03-14T10:37:17;19.7;;;2.9;;
36833;SDS011;48003;52.084;5.224;2023-03-14T10:38:57;20.7;;;3.2;;
36833;SDS011;48003;52.084;5.224;2023-03-14T10:40:52;21.9;;;2.9;;
36833;SDS011;48003;52.084;5.224;2023-03-14T10:44:09;23.4;;;3.1;;
36833;SDS011;48003;52.084;5.224;2023-03-14T10:45:51;21.5;;;2.9;;
36833;SDS011;48003;52.084;5.224;2023-03-14T10:47:29;17.61;;;3.1;;
36833;SDS011;48003;52.084;5.224;2023-03-14T10:49:16;17.91;;;2.9;;
36833;SDS011;48003;52.084;5.224;2023-03-14T10:51:03;22.8;;;3.3;;
36833;SDS011;48003;52.084;5.224;2023-03-14T10:54:24;19.61;;;3.2;;
36833;SDS011;48003;52.084;5.224;2023-03-14T10:56:05;26.3;;;3.8;;
36833;SDS011;48003;52.084;5.224;2023-03-14T10:57:43;23.7;;;3.6;;
36833;SDS011;48003;52.084;5.224;2023-03-14T11:00:58;22.5;;;3.5;;
36833;SDS011;48003;52.084;5.224;2023-03-14T11:02:49;17.5;;;3.2;;
36833;SDS011;48003;52.084;5.224;2023-03-14T11:04:46;21.1;;;3.5;;
36833;SDS011;48003;52.084;5.224;2023-03-14T11:06:36;23.7;;;3.5;;
36833;SDS011;48003;52.084;5.224;2023-03-14T11:08:21;23.2;;;3.7;;
36833;SDS011;48003;52.084;5.224;2023-03-14T11:10:08;21.8;;;3.4;;
36833;SDS011;48003;52.084;5.224;2023-03-14T11:11:53;20.9;;;3.8;;
36833;SDS011;48003;52.084;5.224;2023-03-14T11:15:27;22.2;;;3.6;;
36833;SDS011;48003;52.084;5.224;2023-03-14T11:17:11;24.7;;;3.8;;
36833;SDS011;48003;52.084;5.224;2023-03-14T11:19:09;21.4;;;3.3;;
36833;SDS011;48003;52.084;5.224;2023-03-14T11:21:05;20.11;;;3.7;;
36833;SDS011;48003;52.084;5.224;2023-03-14T11:22:49;20.5;;;3.6;;
36833;SDS011;48003;52.084;5.224;2023-03-14T11:24:39;22.4;;;3.6;;
36833;SDS011;48003;52.084;5.224;2023-03-14T11:28:15;18.41;;;3.2;;
36833;SDS011;48003;52.084;5.224;2023-03-14T11:30:00;18.41;;;3.4;;
36833;SDS011;48003;52.084;5.224;2023-03-14T11:31:49;22.6;;;3.5;;
36833;SDS011;48003;52.084;5.224;2023-03-14T11:33:33;19.0;;;2.9;;
36833;SDS011;48003;52.084;5.224;2023-03-14T11:35:30;24.0;;;3.5;;
36833;SDS011;48003;52.084;5.224;2023-03-14T11:37:11;24.4;;;3.0;;
36833;SDS011;48003;52.084;5.224;2023-03-14T11:40:33;18.8;;;2.8;;
36833;SDS011;48003;52.084;5.224;2023-03-14T11:42:12;23.6;;;3.2;;
36833;SDS011;48003;52.084;5.224;2023-03-14T11:43:52;23.0;;;3.2;;
36833;SDS011;48003;52.084;5.224;2023-03-14T11:45:32;14.8;;;2.7;;
36833;SDS011;48003;52.084;5.224;2023-03-14T11:48:58;14.1;;;2.6;;
36833;SDS011;48003;52.084;5.224;2023-03-14T11:50:39;15.9;;;2.5;;
36833;SDS011;48003;52.084;5.224;2023-03-14T11:52:20;13.9;;;2.5;;
36833;SDS011;48003;52.084;5.224;2023-03-14T11:54:04;13.4;;;2.5;;
36833;SDS011;48003;52.084;5.224;2023-03-14T11:55:50;10.1;;;2.1;;
36833;SDS011;48003;52.084;5.224;2023-03-14T11:59:03;15.0;;;2.4;;
36833;SDS011;48003;52.084;5.224;2023-03-14T12:00:46;9.6;;;2.0;;
36833;SDS011;48003;52.084;5.224;2023-03-14T12:02:26;11.8;;;2.4;;
36833;SDS011;48003;52.084;5.224;2023-03-14T12:04:16;8.31;;;1.8;;
36833;SDS011;48003;52.084;5.224;2023-03-14T12:08:02;12.0;;;1.8;;
36833;SDS011;48003;52.084;5.224;2023-03-14T12:10:21;12.4;;;1.7;;
36833;SDS011;48003;52.084;5.224;2023-03-14T12:11:58;8.6;;;1.6;;
36833;SDS011;48003;52.084;5.224;2023-03-14T12:13:38;10.5;;;1.8;;
36833;SDS011;48003;52.084;5.224;2023-03-14T12:15:18;14.3;;;2.1;;
36833;SDS011;48003;52.084;5.224;2023-03-14T12:16:56;9.21;;;2.0;;
36833;SDS011;48003;52.084;5.224;2023-03-14T12:20:15;12.3;;;1.8;;
36833;SDS011;48003;52.084;5.224;2023-03-14T12:21:56;10.0;;;1.9;;
36833;SDS011;48003;52.084;5.224;2023-03-14T12:23:40;10.0;;;1.8;;
36833;SDS011;48003;52.084;5.224;2023-03-14T12:25:20;7.1;;;1.6;;
36833;SDS011;48003;52.084;5.224;2023-03-14T12:28:37;8.9;;;1.9;;
36833;SDS011;48003;52.084;5.224;2023-03-14T12:30:17;9.9;;;1.8;;
36833;SDS011;48003;52.084;5.224;2023-03-14T12:32:07;10.4;;;2.21;;
36833;SDS011;48003;52.084;5.224;2023-03-14T12:34:00;8.5;;;1.9;;
36833;SDS011;48003;52.084;5.224;2023-03-14T12:35:38;8.5;;;1.9;;
36833;SDS011;48003;52.084;5.224;2023-03-14T12:39:07;10.4;;;1.9;;
36833;SDS011;48003;52.084;5.224;2023-03-14T12:40:57;11.0;;;1.9;;
36833;SDS011;48003;52.084;5.224;2023-03-14T12:42:40;9.6;;;1.7;;
36833;SDS011;48003;52.084;5.224;2023-03-14T12:44:38;9.81;;;1.8;;
36833;SDS011;48003;52.084;5.224;2023-03-14T12:46:24;11.7;;;1.7;;
36833;SDS011;48003;52.084;5.224;2023-03-14T12:49:46;11.1;;;1.7;;
36833;SDS011;48003;52.084;5.224;2023-03-14T12:51:28;8.4;;;1.3;;
36833;SDS011;48003;52.084;5.224;2023-03-14T12:53:45;5.9;;;1.3;;
36833;SDS011;48003;52.084;5.224;2023-03-14T12:56:20;6.7;;;1.11;;